Time;durP1;ratioP1;P1;durP2;ratioP2;P2;SDS_P1;SDS_P2;PMS_P1;PMS_P2;Temp;Humidity;BMP_temperature;BMP_pressure;BME280_temperature;BME280_humidity;BME280_pressure;Samples;Min_cycle;Max_cycle;Signal;HPM_P1;HPM_P2
2022/10/21 00:01:10;;;;;;;3.60;3.30;;;12.00;99.90;;;;;;5087718;28;20088;-76
2022/10/21 00:03:36;;;;;;;4.32;3.25;;;12.80;99.90;;;;;;5083365;28;20040;-76
2022/10/21 00:06:02;;;;;;;3.78;3.33;;;12.70;99.90;;;;;;5080623;28;20072;-76
2022/10/21 00:08:28;;;;;;;3.85;3.10;;;12.30;99.90;;;;;;5077964;28;20044;-76
2022/10/21 00:11:00;;;;;;;2.97;2.67;;;12.80;99.90;;;;;;5075555;28;20131;-76
2022/10/21 00:13:28;;;;;;;4.85;3.78;;;11.90;99.90;;;;;;5092670;28;20105;-76
2022/10/21 00:16:13;;;;;;;4.25;3.67;;;11.50;99.90;;;;;;5088041;28;20048;-76
2022/10/21 00:18:40;;;;;;;4.03;3.20;;;12.70;99.90;;;;;;5077152;28;20053;-76
2022/10/21 00:21:18;;;;;;;5.20;3.97;;;11.40;99.90;;;;;;5075608;28;20049;-76
2022/10/21 00:23:45;;;;;;;4.22;3.40;;;12.80;99.90;;;;;;5083592;28;20110;-76
2022/10/21 00:26:13;;;;;;;4.00;3.35;;;12.20;99.90;;;;;;5087456;28;20090;-76
2022/10/21 00:28:39;;;;;;;3.15;2.70;;;12.30;99.90;;;;;;5071942;28;20044;-76
2022/10/21 00:31:07;;;;;;;4.22;3.35;;;11.60;99.90;;;;;;5092557;28;20038;-76
2022/10/21 00:33:33;;;;;;;3.50;2.90;;;12.40;99.90;;;;;;5092211;28;20123;-76
2022/10/21 00:36:01;;;;;;;3.25;2.95;;;11.30;99.90;;;;;;5080937;28;20127;-76
2022/10/21 00:38:28;;;;;;;3.50;2.70;;;12.40;99.90;;;;;;5070434;28;20080;-76
2022/10/21 00:40:54;;;;;;;3.60;3.03;;;12.00;99.90;;;;;;5075298;28;20383;-77
2022/10/21 00:43:20;;;;;;;3.08;2.60;;;11.30;99.90;;;;;;5092130;28;20036;-76
2022/10/21 00:45:49;;;;;;;2.75;2.20;;;11.70;99.90;;;;;;5075321;28;20419;-76
2022/10/21 00:48:26;;;;;;;3.65;3.08;;;12.20;99.90;;;;;;5080964;28;20047;-76
2022/10/21 00:50:59;;;;;;;4.00;2.92;;;12.50;99.90;;;;;;5060558;28;20061;-76
2022/10/21 00:53:26;;;;;;;2.78;2.47;;;12.20;99.90;;;;;;5076763;28;20048;-76
2022/10/21 00:55:56;;;;;;;6.03;2.90;;;11.20;99.90;;;;;;5069877;28;20068;-76
2022/10/21 00:58:25;;;;;;;3.53;2.40;;;11.90;99.90;;;;;;5076834;28;20055;-76
2022/10/21 01:00:55;;;;;;;2.78;2.38;;;11.80;99.90;;;;;;5053057;28;20047;-76
2022/10/21 01:03:22;;;;;;;2.65;2.40;;;11.20;99.90;;;;;;5067351;28;20040;-76
2022/10/21 01:05:50;;;;;;;3.42;2.92;;;11.20;99.90;;;;;;5072368;28;20546;-76
2022/10/21 01:08:15;;;;;;;5.03;3.40;;;12.20;99.90;;;;;;5084737;28;20051;-76
2022/10/21 01:10:41;;;;;;;3.90;3.00;;;11.10;99.90;;;;;;5074451;28;20043;-76
2022/10/21 01:13:17;;;;;;;3.95;3.35;;;11.80;99.90;;;;;;5090372;28;20048;-76
2022/10/21 01:16:24;;;;;;;3.60;3.30;;;11.00;99.90;;;;;;5070208;28;20048;-76
2022/10/21 01:19:11;;;;;;;3.80;2.67;;;11.00;99.90;;;;;;5047448;28;20559;-76
2022/10/21 01:21:54;;;;;;;3.65;2.67;;;11.00;99.90;;;;;;5072000;28;20053;-76
2022/10/21 01:24:32;;;;;;;3.40;3.05;;;10.90;99.90;;;;;;5071182;28;20614;-76
2022/10/21 01:27:26;;;;;;;3.63;3.22;;;12.10;99.90;;;;;;5071546;28;20450;-76
2022/10/21 01:30:08;;;;;;;4.32;3.40;;;12.10;99.90;;;;;;5070816;28;20048;-76
2022/10/21 01:32:50;;;;;;;3.85;3.10;;;12.00;99.90;;;;;;5089670;28;20044;-76
2022/10/21 01:35:25;;;;;;;4.40;3.40;;;10.80;99.90;;;;;;5083788;28;20040;-77
2022/10/21 01:38:09;;;;;;;3.10;2.80;;;10.80;99.90;;;;;;5083340;28;20050;-76
2022/10/21 01:40:57;;;;;;;3.50;3.20;;;10.80;99.90;;;;;;5077139;28;20040;-76
2022/10/21 01:43:49;;;;;;;3.65;3.08;;;10.80;99.90;;;;;;5080303;28;20051;-76
2022/10/21 01:46:17;;;;;;;2.92;2.45;;;11.40;99.90;;;;;;5069432;28;20037;-76
2022/10/21 01:48:48;;;;;;;3.45;2.70;;;11.90;99.90;;;;;;5079072;28;20114;-76
2022/10/21 01:51:16;;;;;;;3.50;2.80;;;11.90;99.90;;;;;;5082385;28;20044;-76
2022/10/21 01:53:56;;;;;;;2.70;2.20;;;11.20;99.90;;;;;;5079435;28;20048;-76
2022/10/21 01:56:23;;;;;;;2.17;1.98;;;11.40;99.90;;;;;;5054400;28;20501;-76
2022/10/21 01:58:51;;;;;;;2.33;2.13;;;12.00;99.90;;;;;;5080296;28;20389;-76
2022/10/21 02:01:19;;;;;;;2.75;2.00;;;11.90;99.90;;;;;;5090427;28;20047;-76
2022/10/21 02:03:48;;;;;;;2.45;2.00;;;11.00;99.90;;;;;;5061630;28;20044;-76
2022/10/21 02:06:14;;;;;;;2.42;2.17;;;10.90;99.90;;;;;;5073131;28;20079;-76
2022/10/21 02:08:41;;;;;;;2.50;2.22;;;10.70;99.90;;;;;;5080419;28;20068;-76
2022/10/21 02:11:09;;;;;;;2.80;2.20;;;10.70;99.90;;;;;;5090124;28;20032;-76
2022/10/21 02:13:59;;;;;;;2.75;2.17;;;10.70;99.90;;;;;;5082812;28;20043;-76
2022/10/21 02:16:30;;;;;;;2.75;2.38;;;11.70;99.90;;;;;;5075923;28;20063;-76
2022/10/21 02:18:58;;;;;;;2.75;2.13;;;11.60;99.90;;;;;;5073434;28;20039;-76
2022/10/21 02:21:27;;;;;;;2.22;1.83;;;10.80;99.90;;;;;;5084713;28;20048;-76
2022/10/21 02:24:08;;;;;;;2.60;1.90;;;11.40;99.90;;;;;;5089939;28;20482;-76
2022/10/21 02:26:33;;;;;;;2.88;2.30;;;12.00;99.90;;;;;;5059244;28;20047;-76
2022/10/21 02:29:00;;;;;;;3.10;2.67;;;11.60;99.90;;;;;;5052948;28;20048;-76
2022/10/21 02:31:57;;;;;;;3.03;2.60;;;11.30;99.90;;;;;;5067483;28;20052;-76
2022/10/21 02:34:40;;;;;;;5.03;3.35;;;10.90;99.90;;;;;;5089726;28;20044;-76
2022/10/21 02:37:30;;;;;;;3.47;3.10;;;11.70;99.90;;;;;;5057112;28;20097;-76
2022/10/21 02:40:08;;;;;;;4.25;3.50;;;11.30;99.90;;;;;;5079193;28;20131;-76
2022/10/21 02:42:39;;;;;;;4.03;3.33;;;12.20;99.90;;;;;;5086823;28;20047;-77
2022/10/21 02:45:05;;;;;;;3.97;3.40;;;11.20;99.90;;;;;;5085608;28;20143;-76
2022/10/21 02:47:34;;;;;;;4.38;3.50;;;12.40;99.90;;;;;;5062376;28;20032;-76
2022/10/21 02:50:00;;;;;;;5.00;4.20;;;12.40;99.90;;;;;;5062446;28;20091;-76
2022/10/21 02:52:25;;;;;;;4.75;4.10;;;11.40;99.90;;;;;;5069808;28;20087;-76
2022/10/21 02:54:51;;;;;;;5.13;4.00;;;12.50;99.90;;;;;;5087312;28;20043;-76
2022/10/21 02:57:16;;;;;;;7.13;4.75;;;12.60;99.90;;;;;;5060363;28;20055;-77
2022/10/21 02:59:42;;;;;;;5.72;5.05;;;12.60;99.90;;;;;;5062947;28;20185;-77
2022/10/21 03:02:08;;;;;;;6.55;4.80;;;11.50;99.90;;;;;;5084014;28;20123;-77
2022/10/21 03:04:33;;;;;;;5.40;4.20;;;11.30;99.90;;;;;;5087073;28;20043;-77
2022/10/21 03:06:59;;;;;;;5.57;4.05;;;11.30;99.90;;;;;;5057193;28;20040;-77
2022/10/21 03:09:25;;;;;;;4.75;3.83;;;11.50;99.90;;;;;;5084357;28;20054;-77
2022/10/21 03:11:50;;;;;;;4.10;3.70;;;12.90;99.90;;;;;;5077711;28;20487;-77
2022/10/21 03:14:16;;;;;;;3.70;2.92;;;12.80;99.90;;;;;;5085273;28;20395;-77
2022/10/21 03:16:41;;;;;;;3.70;2.53;;;11.40;99.90;;;;;;5082294;28;20406;-77
2022/10/21 03:19:10;;;;;;;3.42;2.70;;;12.40;99.90;;;;;;5083502;28;20137;-77
2022/10/21 03:21:36;;;;;;;3.65;2.88;;;11.40;99.90;;;;;;5080809;28;20048;-77
2022/10/21 03:24:02;;;;;;;4.40;3.17;;;11.50;99.90;;;;;;5083112;28;20058;-78
2022/10/21 03:26:28;;;;;;;3.08;2.33;;;13.10;99.90;;;;;;5069129;28;20044;-78
2022/10/21 03:28:53;;;;;;;2.63;2.15;;;12.80;99.90;;;;;;5056134;28;20040;-78
2022/10/21 03:31:19;;;;;;;1.90;1.70;;;12.90;99.90;;;;;;5082724;28;20059;-78
2022/10/21 03:33:45;;;;;;;2.13;1.60;;;11.70;99.90;;;;;;5068811;28;20040;-77
2022/10/21 03:36:10;;;;;;;1.70;1.50;;;12.80;99.90;;;;;;5067178;28;20147;-77
2022/10/21 03:38:36;;;;;;;1.90;1.70;;;12.80;99.90;;;;;;5053760;28;20127;-77
2022/10/21 03:41:01;;;;;;;2.03;1.60;;;11.40;99.90;;;;;;5072064;28;20040;-78
2022/10/21 03:43:27;;;;;;;2.22;1.70;;;13.00;99.90;;;;;;5075576;28;20088;-77
2022/10/21 03:45:53;;;;;;;1.77;1.50;;;11.40;99.90;;;;;;5064671;28;20406;-77
2022/10/21 03:48:18;;;;;;;1.85;1.58;;;12.90;99.90;;;;;;5078245;28;20044;-77
2022/10/21 03:50:44;;;;;;;1.88;1.60;;;12.90;99.90;;;;;;5068622;28;20036;-77
2022/10/21 03:53:10;;;;;;;2.25;1.85;;;11.40;99.90;;;;;;5051887;28;20055;-77
2022/10/21 03:55:35;;;;;;;2.20;1.80;;;12.30;99.90;;;;;;5079080;28;20123;-77
2022/10/21 03:58:01;;;;;;;2.83;2.00;;;11.40;99.90;;;;;;5084137;28;20041;-77
2022/10/21 04:00:27;;;;;;;2.05;1.70;;;12.30;99.90;;;;;;5049522;28;20067;-77
2022/10/21 04:02:52;;;;;;;1.70;1.60;;;11.30;99.90;;;;;;5069052;28;20059;-77
2022/10/21 04:05:18;;;;;;;2.53;2.00;;;11.50;99.90;;;;;;5066401;28;20044;-77
2022/10/21 04:07:43;;;;;;;2.05;1.60;;;12.80;99.90;;;;;;5068626;28;20127;-77
2022/10/21 04:10:10;;;;;;;1.85;1.63;;;12.70;99.90;;;;;;5070543;28;20076;-76
2022/10/21 04:12:36;;;;;;;1.85;1.55;;;11.40;99.90;;;;;;5070731;28;20483;-77
2022/10/21 04:15:02;;;;;;;2.55;1.70;;;12.00;99.90;;;;;;5071508;28;20041;-77
2022/10/21 04:17:28;;;;;;;1.95;1.73;;;12.90;99.90;;;;;;5051721;28;20052;-77
2022/10/21 04:19:54;;;;;;;1.80;1.40;;;11.30;99.90;;;;;;5061507;28;20460;-77
2022/10/21 04:22:19;;;;;;;2.08;1.77;;;12.80;99.90;;;;;;5060577;28;20849;-77
2022/10/21 04:24:45;;;;;;;2.40;1.95;;;12.90;99.90;;;;;;5045769;28;20085;-77
2022/10/21 04:27:11;;;;;;;2.30;1.85;;;11.40;99.90;;;;;;5047868;28;20119;-77
2022/10/21 04:29:36;;;;;;;2.35;1.88;;;11.90;99.90;;;;;;5067661;28;20083;-76
2022/10/21 04:32:02;;;;;;;2.90;2.00;;;11.50;99.90;;;;;;5070371;28;20048;-76
2022/10/21 04:34:28;;;;;;;2.92;2.38;;;12.90;99.90;;;;;;5070973;28;20060;-77
2022/10/21 04:36:53;;;;;;;2.13;1.80;;;11.30;99.90;;;;;;5069929;28;20036;-78
2022/10/21 04:39:19;;;;;;;2.38;1.95;;;12.70;99.90;;;;;;5066646;28;20620;-78
2022/10/21 04:41:46;;;;;;;2.65;1.90;;;12.70;99.90;;;;;;5051849;28;20628;-76
2022/10/21 04:44:12;;;;;;;2.33;2.00;;;12.30;99.90;;;;;;5068355;28;20491;-76
2022/10/21 04:46:38;;;;;;;2.65;2.22;;;12.80;99.90;;;;;;5067876;28;20044;-76
2022/10/21 04:49:03;;;;;;;2.70;2.40;;;11.40;99.90;;;;;;5067480;28;20048;-76
2022/10/21 04:51:29;;;;;;;3.15;2.60;;;12.90;99.90;;;;;;5049907;28;20095;-77
2022/10/21 04:53:55;;;;;;;3.20;2.80;;;12.80;99.90;;;;;;5068039;28;20052;-77
2022/10/21 04:56:20;;;;;;;3.47;2.70;;;11.90;99.90;;;;;;5071370;28;20044;-77
2022/10/21 04:58:46;;;;;;;3.80;3.08;;;12.30;99.90;;;;;;5070126;28;20076;-76
2022/10/21 05:01:11;;;;;;;3.83;3.30;;;12.90;99.90;;;;;;5070885;28;20075;-77
2022/10/21 05:03:37;;;;;;;2.78;2.50;;;12.90;99.90;;;;;;5071708;28;20044;-77
2022/10/21 05:06:03;;;;;;;3.33;2.63;;;13.00;99.90;;;;;;5070464;28;20072;-77
2022/10/21 05:08:29;;;;;;;2.85;2.47;;;11.90;99.90;;;;;;5054082;28;20043;-77
2022/10/21 05:11:01;;;;;;;3.58;3.00;;;12.00;99.90;;;;;;5071691;28;20043;-76
2022/10/21 05:13:28;;;;;;;3.67;3.15;;;13.10;99.90;;;;;;5070793;28;20497;-77
2022/10/21 05:15:58;;;;;;;4.50;3.30;;;11.90;99.90;;;;;;5055103;28;20040;-77
2022/10/21 05:18:24;;;;;;;3.90;3.50;;;13.00;99.90;;;;;;5071579;28;20040;-77
2022/10/21 05:20:51;;;;;;;4.88;4.28;;;11.50;99.90;;;;;;5037924;28;20045;-79
2022/10/21 05:23:17;;;;;;;4.35;3.65;;;11.90;99.90;;;;;;5068009;28;20036;-79
2022/10/21 05:25:44;;;;;;;3.92;3.30;;;13.20;99.90;;;;;;5067881;28;20459;-79
2022/10/21 05:28:09;;;;;;;4.82;3.67;;;12.90;99.90;;;;;;5052067;28;20051;-78
2022/10/21 05:30:35;;;;;;;4.65;3.90;;;13.20;99.90;;;;;;5072497;28;20048;-77
2022/10/21 05:33:01;;;;;;;6.78;4.15;;;13.30;99.90;;;;;;5065661;28;20045;-77
2022/10/21 05:35:26;;;;;;;6.00;3.95;;;11.80;99.90;;;;;;5049071;28;20036;-77
2022/10/21 05:37:52;;;;;;;4.45;3.30;;;12.60;99.90;;;;;;5045687;28;20090;-77
2022/10/21 05:40:18;;;;;;;4.93;3.55;;;13.30;99.90;;;;;;5054226;28;20060;-77
2022/10/21 05:42:44;;;;;;;5.75;4.10;;;11.70;99.90;;;;;;5070794;28;20047;-78
2022/10/21 05:45:10;;;;;;;;;;;13.20;99.90;;;;;;5055018;28;20412;-77
2022/10/21 05:47:37;;;;;;;4.93;3.47;;;13.40;99.90;;;;;;5070647;28;20009;-77
2022/10/21 05:50:02;;;;;;;4.07;2.83;;;12.00;99.90;;;;;;5070833;28;20161;-77
2022/10/21 05:52:28;;;;;;;4.22;3.40;;;13.30;99.90;;;;;;5037296;28;20127;-77
2022/10/21 05:54:54;;;;;;;4.97;3.92;;;13.40;99.90;;;;;;5070784;28;20040;-77
2022/10/21 05:57:19;;;;;;;7.28;5.32;;;12.30;99.90;;;;;;5043220;28;20480;-77
2022/10/21 05:59:45;;;;;;;6.07;5.20;;;12.90;99.90;;;;;;5071764;28;20491;-78
2022/10/21 06:02:11;;;;;;;6.88;5.15;;;12.90;99.90;;;;;;5037184;28;20049;-78
2022/10/21 06:04:36;;;;;;;8.65;6.18;;;12.40;99.90;;;;;;5070234;28;20147;-79
2022/10/21 06:07:02;;;;;;;6.70;5.60;;;12.00;99.90;;;;;;5053418;28;20040;-78
2022/10/21 06:09:28;;;;;;;7.43;5.10;;;13.00;99.90;;;;;;5053742;28;20063;-78
2022/10/21 06:11:53;;;;;;;7.68;6.15;;;13.30;99.90;;;;;;5037117;28;20045;-81
2022/10/21 06:14:19;;;;;;;7.68;5.70;;;11.90;99.90;;;;;;5070669;28;20070;-78
2022/10/21 06:16:45;;;;;;;5.13;4.25;;;12.70;99.90;;;;;;5051934;28;20119;-80
2022/10/21 06:19:10;;;;;;;4.88;3.92;;;13.20;99.90;;;;;;5046766;28;20068;-79
2022/10/21 06:21:36;;;;;;;5.35;4.05;;;13.00;99.90;;;;;;5050756;28;20060;-78
2022/10/21 06:24:02;;;;;;;5.82;4.28;;;13.00;99.90;;;;;;5063125;28;20040;-77
2022/10/21 06:26:27;;;;;;;9.40;6.63;;;11.90;99.90;;;;;;5067650;28;20032;-77
2022/10/21 06:28:53;;;;;;;6.70;4.97;;;12.30;99.90;;;;;;5068362;28;20768;-76
2022/10/21 06:31:22;;;;;;;6.88;4.63;;;13.50;99.90;;;;;;5069935;28;20078;-75
2022/10/21 06:33:48;;;;;;;6.05;3.97;;;13.50;99.90;;;;;;5069214;28;20040;-76
2022/10/21 06:36:17;;;;;;;7.45;5.60;;;12.60;99.90;;;;;;5067370;28;20842;-75
2022/10/21 06:38:43;;;;;;;7.63;6.30;;;13.20;99.90;;;;;;5041982;28;20056;-73
2022/10/21 06:41:12;;;;;;;7.25;5.20;;;13.00;99.90;;;;;;5060713;28;20041;-74
2022/10/21 06:43:38;;;;;;;6.25;5.18;;;12.00;99.90;;;;;;5063575;28;20040;-74
2022/10/21 06:46:06;;;;;;;6.35;4.63;;;13.00;99.90;;;;;;5064087;28;20033;-74
2022/10/21 06:48:32;;;;;;;5.72;4.55;;;13.50;99.90;;;;;;5052659;28;20044;-74
2022/10/21 06:50:59;;;;;;;6.35;4.78;;;11.90;99.90;;;;;;5034647;28;20048;-74
2022/10/21 06:53:26;;;;;;;8.82;5.70;;;11.90;99.90;;;;;;5052149;28;20438;-74
2022/10/21 06:56:08;;;;;;;;;;;11.90;99.90;;;;;;5051131;28;20102;-74
2022/10/21 06:58:38;;;;;;;5.40;4.53;;;11.90;99.90;;;;;;5046546;28;19920;-74
2022/10/21 07:01:12;;;;;;;7.05;5.40;;;13.60;99.90;;;;;;5060272;28;20217;-74
2022/10/21 07:03:38;;;;;;;5.88;4.53;;;12.10;99.90;;;;;;5061574;28;20060;-74
2022/10/21 07:06:04;;;;;;;4.70;3.92;;;12.70;99.90;;;;;;5065830;28;20447;-74
2022/10/21 07:08:31;;;;;;;4.47;3.83;;;12.90;99.90;;;;;;5068009;28;20032;-74
2022/10/21 07:10:57;;;;;;;5.30;4.20;;;12.10;99.90;;;;;;5068125;28;20052;-78
2022/10/21 07:13:23;;;;;;;3.95;3.40;;;13.50;99.90;;;;;;5066257;28;20041;-75
2022/10/21 07:15:58;;;;;;;;;;;13.50;99.90;;;;;;5064602;28;20032;-75
2022/10/21 07:18:24;;;;;;;3.58;2.85;;;12.00;99.90;;;;;;5066604;28;19916;-75
2022/10/21 07:20:50;;;;;;;4.88;3.42;;;13.50;99.90;;;;;;5062744;28;20499;-75
2022/10/21 07:23:16;;;;;;;4.38;3.60;;;13.50;99.90;;;;;;5063122;28;20507;-75
2022/10/21 07:25:42;;;;;;;3.88;3.13;;;12.40;99.90;;;;;;5064060;28;20068;-75
2022/10/21 07:28:08;;;;;;;3.35;2.95;;;13.60;99.90;;;;;;5062894;28;20540;-75
2022/10/21 07:30:42;;;;;;;3.72;3.08;;;12.10;99.90;;;;;;5036983;28;20098;-75
2022/10/21 07:33:08;;;;;;;3.67;3.10;;;13.40;99.90;;;;;;5069772;28;20495;-75
2022/10/21 07:35:33;;;;;;;;;;;12.20;99.90;;;;;;5052565;28;20036;-75
2022/10/21 07:37:59;;;;;;;2.70;2.45;;;12.60;99.90;;;;;;5068542;28;19924;-75
2022/10/21 07:40:27;;;;;;;3.80;3.00;;;12.30;99.90;;;;;;5052101;28;20055;-75
2022/10/21 07:42:53;;;;;;;2.92;2.22;;;12.30;99.90;;;;;;5069020;28;20461;-75
2022/10/21 07:45:19;;;;;;;3.70;3.10;;;13.60;99.90;;;;;;5052393;28;20094;-75
2022/10/21 07:47:45;;;;;;;5.07;3.20;;;12.50;99.90;;;;;;5052029;28;20040;-75
2022/10/21 07:50:11;;;;;;;3.90;3.10;;;13.40;99.90;;;;;;5068932;28;20361;-75
2022/10/21 07:52:44;;;;;;;3.22;2.78;;;12.10;99.90;;;;;;5068997;28;20047;-75
2022/10/21 07:55:11;;;;;;;3.17;2.60;;;12.80;99.90;;;;;;5052127;28;20487;-75
2022/10/21 07:57:37;;;;;;;3.40;2.60;;;13.60;99.90;;;;;;5052214;28;20067;-75
2022/10/21 09:37:38;;;;;;;3.83;3.42;;;15.50;99.90;;;;;;5703447;23;21165;-72
2022/10/21 09:40:30;;;;;;;4.00;3.60;;;15.00;99.90;;;;;;5621295;23;20117;31
2022/10/21 09:42:58;;;;;;;4.65;2.72;;;14.80;99.90;;;;;;4877800;29;20468;-77
2022/10/21 09:45:36;;;;;;;3.20;2.90;;;15.80;99.90;;;;;;4875035;29;20053;-78
2022/10/21 09:48:17;;;;;;;3.38;2.60;;;15.70;99.90;;;;;;4875048;29;20052;-77
2022/10/21 09:50:45;;;;;;;3.65;2.95;;;15.20;99.90;;;;;;4879043;29;20053;-78
2022/10/21 09:53:18;;;;;;;3.20;2.83;;;14.80;99.90;;;;;;4883024;29;20056;-78
2022/10/21 09:55:54;;;;;;;2.97;2.40;;;15.20;99.90;;;;;;4870913;29;20048;-77
2022/10/21 09:58:25;;;;;;;3.10;2.50;;;16.20;99.90;;;;;;4876088;29;20445;-77
2022/10/21 10:00:52;;;;;;;2.85;2.42;;;16.10;99.90;;;;;;4854419;29;20056;-78
2022/10/21 10:03:30;;;;;;;3.60;2.72;;;15.20;99.90;;;;;;4863306;29;20449;-77
2022/10/21 10:05:56;;;;;;;4.75;3.58;;;15.30;99.90;;;;;;4874661;29;20055;-78
2022/10/21 10:08:29;;;;;;;4.18;3.53;;;16.20;99.90;;;;;;4876347;29;20053;-78
2022/10/21 10:11:12;;;;;;;4.30;3.70;;;15.40;99.90;;;;;;4859964;29;20489;-78
2022/10/21 10:13:44;;;;;;;5.20;3.53;;;16.00;99.90;;;;;;4868916;29;20472;-77
2022/10/21 10:16:22;;;;;;;5.18;4.00;;;16.20;99.90;;;;;;4861202;29;20058;-78
2022/10/21 10:18:53;;;;;;;5.05;3.50;;;16.40;99.90;;;;;;4875533;29;20512;-78
2022/10/21 10:21:21;;;;;;;3.20;2.70;;;16.50;99.90;;;;;;4877430;29;20044;-78
2022/10/21 10:23:51;;;;;;;3.17;2.40;;;16.30;99.90;;;;;;4860057;29;20128;-77
2022/10/21 10:26:32;;;;;;;3.00;2.70;;;16.30;99.90;;;;;;4869070;29;20045;-78
2022/10/21 10:29:18;;;;;;;4.93;3.38;;;15.90;99.90;;;;;;4868841;29;20052;-77
2022/10/21 10:31:50;;;;;;;3.92;3.30;;;16.10;99.90;;;;;;4868080;29;20159;-71
2022/10/21 10:34:22;;;;;;;3.78;2.85;;;16.00;99.90;;;;;;4869613;29;20524;-72
2022/10/21 10:36:49;;;;;;;5.03;3.70;;;16.70;99.90;;;;;;4867553;29;20037;-72
2022/10/21 10:39:29;;;;;;;5.00;3.45;;;16.00;99.90;;;;;;4868993;29;20045;-71
2022/10/21 10:41:55;;;;;;;3.13;2.80;;;16.50;99.90;;;;;;4864189;29;20053;-71
2022/10/21 10:44:33;;;;;;;4.72;3.33;;;16.50;99.90;;;;;;4864843;29;20045;-77
2022/10/21 10:47:01;;;;;;;3.47;3.00;;;16.40;99.90;;;;;;4860823;29;20037;-77
2022/10/21 10:49:35;;;;;;;3.60;2.75;;;16.10;99.90;;;;;;4863171;29;20049;-78
2022/10/21 10:52:10;;;;;;;3.08;2.70;;;16.60;99.90;;;;;;4861929;29;20102;-78
2022/10/21 10:54:41;;;;;;;5.60;3.90;;;16.40;99.90;;;;;;4865996;29;20132;-78
2022/10/21 10:57:12;;;;;;;5.18;3.50;;;16.60;99.90;;;;;;4865029;29;20045;-78
2022/10/21 10:59:54;;;;;;;4.15;3.00;;;16.30;99.90;;;;;;4847032;29;20045;-78
2022/10/21 11:02:29;;;;;;;4.13;3.22;;;16.20;99.90;;;;;;4869126;29;20505;-78
2022/10/21 11:05:16;;;;;;;4.85;3.13;;;16.50;99.90;;;;;;4874608;29;20108;-78
2022/10/21 11:07:49;;;;;;;3.47;2.70;;;16.70;99.90;;;;;;4887300;29;20041;-78
2022/10/21 11:10:32;;;;;;;2.40;2.20;;;16.60;99.90;;;;;;4861646;29;20124;-78
2022/10/21 11:13:03;;;;;;;3.53;2.92;;;16.40;99.90;;;;;;4866105;29;20131;-78
2022/10/21 11:15:50;;;;;;;3.33;2.80;;;16.90;99.90;;;;;;4869517;29;20077;-78
2022/10/21 11:18:39;;;;;;;3.80;2.90;;;17.00;99.90;;;;;;4872246;29;20089;-78
2022/10/21 11:21:29;;;;;;;2.58;2.30;;;16.70;99.90;;;;;;4865839;29;20049;-78
2022/10/21 11:24:05;;;;;;;3.33;2.50;;;17.00;99.90;;;;;;4863298;29;20041;-78
2022/10/21 11:26:57;;;;;;;3.10;2.80;;;17.00;99.90;;;;;;4870946;29;20052;-78
2022/10/21 11:29:34;;;;;;;2.50;2.28;;;16.80;99.90;;;;;;4875308;29;20461;-78
2022/10/21 11:32:26;;;;;;;3.08;2.40;;;17.00;99.90;;;;;;4858482;29;20060;-78
2022/10/21 11:35:03;;;;;;;4.53;2.25;;;16.70;99.90;;;;;;4874699;29;20064;-78
2022/10/21 11:37:58;;;;;;;4.15;2.20;;;16.70;99.90;;;;;;4878801;29;20048;-78
2022/10/21 11:40:40;;;;;;;3.67;2.20;;;16.80;99.90;;;;;;4869815;29;20067;-78
2022/10/21 11:43:21;;;;;;;2.75;1.90;;;16.80;99.90;;;;;;4833001;29;20127;-78
2022/10/21 11:46:21;;;;;;;4.22;2.92;;;16.90;99.90;;;;;;4840607;29;20053;-78
2022/10/21 11:49:18;;;;;;;2.97;1.70;;;16.90;99.90;;;;;;4839400;29;20054;-79
2022/10/21 11:52:11;;;;;;;3.03;2.03;;;17.10;99.90;;;;;;4833206;29;20053;-78
2022/10/21 11:55:00;;;;;;;3.47;2.60;;;17.20;99.90;;;;;;4840226;29;20061;-79
2022/10/21 11:57:51;;;;;;;2.47;1.90;;;17.20;99.90;;;;;;4831935;29;20698;-79
2022/10/21 12:00:22;;;;;;;2.35;1.80;;;17.10;99.90;;;;;;4846728;29;20049;-79
2022/10/21 12:03:13;;;;;;;3.53;2.03;;;17.10;99.90;;;;;;4838016;29;20045;-79
2022/10/21 12:06:00;;;;;;;3.55;2.22;;;17.00;99.90;;;;;;4840162;29;20204;-78
2022/10/21 12:08:52;;;;;;;3.58;2.58;;;16.80;99.90;;;;;;4828987;29;20054;-79
2022/10/21 12:11:28;;;;;;;3.05;2.33;;;17.00;99.90;;;;;;4838334;29;20045;-78
2022/10/21 12:14:18;;;;;;;3.47;2.78;;;16.70;99.90;;;;;;4840865;29;20358;-79
2022/10/21 12:16:45;;;;;;;2.63;2.08;;;16.90;99.90;;;;;;4832794;29;20050;-79
2022/10/21 12:19:12;;;;;;;3.65;2.13;;;16.90;99.90;;;;;;4825154;29;20160;-78
2022/10/21 12:21:43;;;;;;;2.60;2.10;;;17.00;99.90;;;;;;4836576;29;20065;-79
2022/10/21 12:24:48;;;;;;;4.07;2.40;;;16.70;99.90;;;;;;4839157;29;20121;-78
2022/10/21 12:27:25;;;;;;;2.70;2.15;;;16.80;99.90;;;;;;4834763;29;20069;-78
2022/10/21 12:30:15;;;;;;;3.20;2.30;;;16.80;99.90;;;;;;4823557;29;20046;-80
2022/10/21 12:33:02;;;;;;;3.20;2.30;;;16.70;99.90;;;;;;4835351;29;20410;-78
2022/10/21 12:35:40;;;;;;;;;;;17.00;99.90;;;;;;4840054;29;20197;-78
2022/10/21 12:38:23;;;;;;;3.63;2.17;;;17.00;99.90;;;;;;4840403;29;20019;-79
2022/10/21 12:40:50;;;;;;;3.15;2.10;;;17.00;99.90;;;;;;4843516;29;20057;-78
2022/10/21 12:43:27;;;;;;;2.63;1.98;;;16.80;99.90;;;;;;4867146;29;20061;-78
2022/10/21 12:46:08;;;;;;;2.80;1.90;;;16.70;99.90;;;;;;4854578;29;20048;-78
2022/10/21 12:48:42;;;;;;;2.72;2.25;;;16.90;99.90;;;;;;4855766;29;20073;-77
2022/10/21 12:51:20;;;;;;;2.80;2.08;;;16.80;99.90;;;;;;4873390;29;20056;-79
2022/10/21 12:54:01;;;;;;;2.55;2.28;;;16.90;99.90;;;;;;4875479;29;20109;-78
2022/10/21 12:56:54;;;;;;;3.13;2.60;;;16.80;99.90;;;;;;4877311;29;20048;-77
2022/10/21 12:59:36;;;;;;;3.83;2.45;;;16.70;99.90;;;;;;4868578;29;20061;-78
2022/10/21 13:02:05;;;;;;;2.17;1.88;;;16.90;99.90;;;;;;4864363;29;20049;-78
2022/10/21 13:04:31;;;;;;;2.20;1.70;;;16.70;99.90;;;;;;4874771;29;20754;-78
2022/10/21 13:06:58;;;;;;;1.63;1.45;;;16.90;99.90;;;;;;4875429;29;20044;-78
2022/10/21 13:09:36;;;;;;;1.55;1.20;;;16.90;99.90;;;;;;4859766;29;21312;-80
2022/10/21 13:12:08;;;;;;;1.48;1.30;;;16.90;99.90;;;;;;4874316;29;20045;-78
2022/10/21 13:14:39;;;;;;;2.58;1.73;;;16.80;99.90;;;;;;4890541;29;20049;-78
2022/10/21 13:17:20;;;;;;;2.25;1.60;;;16.80;99.90;;;;;;4875653;29;20049;-79
2022/10/21 13:19:51;;;;;;;1.98;1.50;;;17.00;99.90;;;;;;4868339;29;20458;-78
2022/10/21 13:22:21;;;;;;;2.45;1.70;;;16.80;99.90;;;;;;4871281;29;20160;-80
2022/10/21 13:24:48;;;;;;;6.40;2.58;;;16.80;99.90;;;;;;4869432;29;20044;-79
2022/10/21 13:27:30;;;;;;;2.70;2.22;;;16.80;99.90;;;;;;4854854;29;20156;-78
2022/10/21 13:29:57;;;;;;;2.53;2.05;;;16.90;99.90;;;;;;4875834;29;20120;-78
2022/10/21 13:32:35;;;;;;;2.75;1.88;;;16.90;99.90;;;;;;4890945;29;20342;-78
2022/10/21 13:35:26;;;;;;;2.45;2.08;;;16.80;99.90;;;;;;4881570;29;20045;-79
2022/10/21 13:38:00;;;;;;;2.78;2.53;;;17.10;99.90;;;;;;4881568;29;20064;-79
2022/10/21 13:40:31;;;;;;;3.55;2.20;;;16.90;99.90;;;;;;4884391;29;20044;-79
2022/10/21 13:43:01;;;;;;;2.50;1.92;;;17.00;99.90;;;;;;4884842;29;20052;-79
2022/10/21 13:45:30;;;;;;;2.40;1.90;;;17.20;99.90;;;;;;4882735;29;20049;-79
2022/10/21 13:48:14;;;;;;;4.30;2.42;;;17.30;99.90;;;;;;4882494;29;20045;-79
2022/10/21 13:50:42;;;;;;;3.17;2.50;;;17.40;99.90;;;;;;4879957;29;20053;-79
2022/10/21 13:53:34;;;;;;;3.78;2.83;;;17.20;99.90;;;;;;4869155;29;20057;-79
2022/10/21 13:56:05;;;;;;;3.67;2.50;;;17.40;99.90;;;;;;4862607;29;20087;-79
2022/10/21 13:58:37;;;;;;;2.47;2.25;;;17.10;99.90;;;;;;4899338;29;20045;-77
2022/10/21 14:01:17;;;;;;;3.83;2.10;;;17.30;99.90;;;;;;4882429;29;20049;-79
2022/10/21 14:03:43;;;;;;;2.38;2.05;;;17.30;99.90;;;;;;4901314;29;20040;-78
2022/10/21 14:06:10;;;;;;;;;;;17.50;99.90;;;;;;4881448;29;20053;-79
2022/10/21 14:08:42;;;;;;;4.63;2.42;;;17.50;99.90;;;;;;4869489;29;20336;-79
2022/10/21 14:11:14;;;;;;;2.00;1.77;;;17.30;99.90;;;;;;4870831;29;20053;-78
2022/10/21 14:13:40;;;;;;;2.35;1.63;;;17.30;99.90;;;;;;4870054;29;20768;-78
2022/10/21 14:16:06;;;;;;;;;;;17.50;99.90;;;;;;4872685;29;20056;-78
2022/10/21 14:18:38;;;;;;;2.77;2.33;;;17.20;99.90;;;;;;4875821;29;19930;-78
2022/10/21 14:21:05;;;;;;;2.83;2.20;;;17.40;99.90;;;;;;4875815;29;20857;-78
2022/10/21 14:23:32;;;;;;;2.63;1.95;;;17.40;99.90;;;;;;4876147;29;20059;-72
2022/10/21 14:26:05;;;;;;;2.58;1.80;;;17.30;99.90;;;;;;4874842;29;20095;-73
2022/10/21 14:28:32;;;;;;;2.10;1.50;;;17.10;99.90;;;;;;4860102;29;20112;-73
2022/10/21 14:31:00;;;;;;;3.42;2.15;;;17.10;99.90;;;;;;4852063;29;20050;-73
2022/10/21 14:33:28;;;;;;;2.20;1.83;;;17.10;99.90;;;;;;4868219;29;20061;-72
2022/10/21 14:36:03;;;;;;;2.17;1.75;;;17.00;99.90;;;;;;4863833;29;20145;-72
2022/10/21 14:38:40;;;;;;;1.40;1.30;;;17.20;99.90;;;;;;4874904;29;20040;-72
2022/10/21 14:41:13;;;;;;;1.98;1.77;;;17.00;99.90;;;;;;4874544;29;20401;-72
2022/10/21 14:43:41;;;;;;;2.25;1.70;;;17.00;99.90;;;;;;4859216;29;20060;-72
2022/10/21 14:46:08;;;;;;;2.42;1.70;;;17.10;99.90;;;;;;4875634;29;20148;-72
2022/10/21 14:48:44;;;;;;;2.97;1.95;;;17.00;99.90;;;;;;4826002;29;20393;-72